Time;durP1;ratioP1;P1;durP2;ratioP2;P2;SDS_P1;SDS_P2;PMS_P1;PMS_P2;Temp;Humidity;BMP_temperature;BMP_pressure;BME280_temperature;BME280_humidity;BME280_pressure;Samples;Min_cycle;Max_cycle;Signal;HPM_P1;HPM_P2
2022/01/03 00:01:46;;;;;;;3.03;1.10;;;10.60;99.90;;;;;;5045699;28;20040;-71
2022/01/03 00:04:14;;;;;;;6.40;1.08;;;10.60;99.90;;;;;;5032068;28;20034;-71
2022/01/03 00:06:39;;;;;;;3.03;0.90;;;10.70;99.90;;;;;;5019481;28;20041;-71
2022/01/03 00:09:06;;;;;;;4.72;1.10;;;10.70;99.90;;;;;;5030490;28;20030;-71
2022/01/03 00:11:32;;;;;;;4.45;1.35;;;10.70;99.90;;;;;;5031273;28;20448;-71
2022/01/03 00:13:58;;;;;;;4.25;1.10;;;10.80;99.90;;;;;;5029518;28;20091;-70
2022/01/03 00:16:24;;;;;;;2.30;1.15;;;10.80;99.90;;;;;;5015997;28;20494;-71
2022/01/03 00:18:54;;;;;;;2.67;0.82;;;10.80;99.90;;;;;;5033107;28;20041;-71
2022/01/03 00:21:26;;;;;;;2.10;0.90;;;10.80;99.90;;;;;;5037488;28;20721;-71
2022/01/03 00:23:58;;;;;;;5.78;1.05;;;10.80;99.90;;;;;;5012531;28;20061;-70
2022/01/03 00:26:26;;;;;;;2.75;1.10;;;10.80;99.90;;;;;;5028028;28;20077;-71
2022/01/03 00:29:04;;;;;;;4.35;0.95;;;10.80;99.90;;;;;;5029202;28;20418;-71
2022/01/03 00:31:38;;;;;;;4.85;1.13;;;10.80;99.90;;;;;;5012702;28;20406;-71
2022/01/03 00:34:05;;;;;;;3.42;1.23;;;10.90;99.90;;;;;;5030912;28;20025;-71
2022/01/03 00:36:38;;;;;;;10.20;1.73;;;10.90;99.90;;;;;;5035964;28;20036;-71
2022/01/03 00:39:07;;;;;;;4.60;1.00;;;10.80;99.90;;;;;;5022601;28;20053;-71
2022/01/03 00:41:36;;;;;;;4.18;1.02;;;10.90;99.90;;;;;;5029579;28;20021;-71
2022/01/03 00:44:05;;;;;;;2.75;1.02;;;10.90;99.90;;;;;;5028114;28;20032;-71
2022/01/03 00:46:33;;;;;;;5.25;1.08;;;10.90;99.90;;;;;;5015426;28;20033;-71
2022/01/03 00:49:00;;;;;;;7.00;0.75;;;10.90;99.90;;;;;;5027220;28;20055;-71
2022/01/03 00:51:26;;;;;;;6.05;1.30;;;11.00;99.90;;;;;;5033082;28;20026;-71
2022/01/03 00:53:52;;;;;;;3.78;1.15;;;11.00;99.90;;;;;;5013454;28;20116;-70
2022/01/03 00:56:34;;;;;;;5.38;1.02;;;10.90;99.90;;;;;;5017688;28;20063;-70
2022/01/03 00:59:09;;;;;;;4.72;1.33;;;10.90;99.90;;;;;;5029087;28;20025;-70
2022/01/03 01:01:55;;;;;;;6.85;1.10;;;10.90;99.90;;;;;;5029751;28;20053;-70
2022/01/03 01:04:22;;;;;;;4.00;1.35;;;10.90;99.90;;;;;;5022537;28;20477;-70
2022/01/03 01:06:54;;;;;;;3.85;1.40;;;11.00;99.90;;;;;;5031208;28;20042;-70
2022/01/03 01:09:22;;;;;;;4.78;0.90;;;11.00;99.90;;;;;;5023726;28;20029;-70
2022/01/03 01:11:52;;;;;;;3.58;1.13;;;10.90;99.90;;;;;;5035544;28;20105;-71
2022/01/03 01:14:19;;;;;;;6.97;0.93;;;10.90;99.90;;;;;;5027810;28;20041;-70
2022/01/03 01:16:45;;;;;;;5.25;1.20;;;10.90;99.90;;;;;;5014947;28;20040;-71
2022/01/03 01:19:19;;;;;;;2.58;0.75;;;10.90;99.90;;;;;;5027162;28;20082;-71
2022/01/03 01:21:48;;;;;;;2.45;1.10;;;10.90;99.90;;;;;;5029920;28;20025;-70
2022/01/03 01:24:16;;;;;;;3.25;0.98;;;10.90;99.90;;;;;;5029993;28;20029;-71
2022/01/03 01:29:28;;;;;;;4.18;1.20;;;10.90;99.90;;;;;;5027722;28;20095;-71
2022/01/03 01:31:57;;;;;;;7.63;1.30;;;11.00;99.90;;;;;;5018867;28;20052;-71
2022/01/03 01:34:27;;;;;;;2.50;1.08;;;11.00;99.90;;;;;;5035702;28;20079;-71
2022/01/03 01:36:56;;;;;;;8.15;1.35;;;11.00;99.90;;;;;;5024695;28;20541;-70
2022/01/03 01:39:26;;;;;;;4.78;1.10;;;11.00;99.90;;;;;;5026730;28;20031;-70
2022/01/03 01:41:58;;;;;;;4.13;1.48;;;11.00;99.90;;;;;;5013889;28;20026;-71
2022/01/03 01:44:35;;;;;;;7.68;0.95;;;11.00;99.90;;;;;;5022853;28;20466;-71
2022/01/03 01:47:06;;;;;;;4.18;0.85;;;11.00;99.90;;;;;;5028672;28;20033;-71
2022/01/03 01:49:44;;;;;;;6.90;1.00;;;11.10;99.90;;;;;;5030737;28;20032;-70
2022/01/03 01:52:24;;;;;;;5.32;1.38;;;11.00;99.90;;;;;;5039190;28;20096;-70
2022/01/03 01:54:58;;;;;;;7.95;1.00;;;11.00;99.90;;;;;;5032289;28;20037;-71
2022/01/03 01:57:38;;;;;;;4.22;1.10;;;11.00;99.90;;;;;;5030152;28;20044;-70
2022/01/03 02:00:10;;;;;;;4.80;1.25;;;11.00;99.90;;;;;;5022251;28;20170;-71
2022/01/03 02:03:01;;;;;;;5.30;1.17;;;11.10;99.90;;;;;;5031181;28;20075;-71
2022/01/03 02:05:38;;;;;;;4.07;1.40;;;11.00;99.90;;;;;;5037422;28;20032;-71
2022/01/03 02:08:07;;;;;;;3.42;0.73;;;11.00;99.90;;;;;;5035580;28;20094;-71
2022/01/03 02:11:04;;;;;;;3.13;0.70;;;11.00;99.90;;;;;;5034017;28;20024;-71
2022/01/03 02:13:30;;;;;;;2.38;1.05;;;11.00;99.90;;;;;;5000761;28;20037;-71
2022/01/03 02:16:03;;;;;;;5.00;0.80;;;11.00;99.90;;;;;;5037755;28;20048;-71
2022/01/03 02:18:30;;;;;;;3.20;1.10;;;11.00;99.90;;;;;;5015489;28;20026;-71
2022/01/03 02:20:56;;;;;;;2.60;0.80;;;10.90;99.90;;;;;;5020967;28;20026;-71
2022/01/03 02:23:22;;;;;;;5.82;0.90;;;11.00;99.90;;;;;;5031894;28;20489;-70
2022/01/03 02:25:48;;;;;;;5.45;1.00;;;11.00;99.90;;;;;;5023055;28;20041;-70
2022/01/03 02:28:16;;;;;;;3.85;0.90;;;10.90;99.90;;;;;;5034077;28;20025;-70
2022/01/03 02:30:42;;;;;;;3.63;1.00;;;10.90;99.90;;;;;;5033125;28;20071;-70
2022/01/03 02:33:08;;;;;;;5.85;1.45;;;10.90;99.90;;;;;;5029107;28;20092;-70
2022/01/03 02:35:36;;;;;;;6.45;1.10;;;10.90;99.90;;;;;;5032389;28;20026;-70
2022/01/03 02:38:02;;;;;;;5.00;1.05;;;10.90;99.90;;;;;;5038259;28;20037;-70
2022/01/03 02:40:31;;;;;;;3.72;0.70;;;10.90;99.90;;;;;;5037397;28;20102;-70
2022/01/03 02:43:00;;;;;;;3.33;1.20;;;10.90;99.90;;;;;;5029846;28;20021;-70
2022/01/03 02:45:26;;;;;;;6.35;1.02;;;10.80;99.90;;;;;;5033011;28;20589;-70
2022/01/03 02:47:57;;;;;;;3.70;1.10;;;10.80;99.90;;;;;;5042422;28;20058;-70
2022/01/03 02:50:24;;;;;;;5.78;1.60;;;10.90;99.90;;;;;;5034660;28;20029;-70
2022/01/03 02:52:49;;;;;;;5.75;1.25;;;10.90;99.90;;;;;;5037913;28;20546;-71
2022/01/03 02:55:18;;;;;;;5.47;1.27;;;10.90;99.90;;;;;;5022064;28;20064;-71
2022/01/03 02:57:52;;;;;;;2.20;1.00;;;10.90;99.90;;;;;;5016951;28;20481;-71
2022/01/03 03:00:26;;;;;;;2.22;0.85;;;10.80;99.90;;;;;;5035414;28;20032;-71
2022/01/03 03:02:51;;;;;;;;;;;10.80;99.90;;;;;;5028906;28;20608;-71
2022/01/03 03:05:17;;;;;;;4.85;1.42;;;10.90;99.90;;;;;;5032183;28;19905;-71
2022/01/03 03:07:45;;;;;;;3.95;1.15;;;10.80;99.90;;;;;;5009731;28;20036;-71
2022/01/03 03:10:16;;;;;;;3.35;1.35;;;10.80;99.90;;;;;;5012089;28;20466;-71
2022/01/03 03:12:43;;;;;;;5.25;1.10;;;10.80;99.90;;;;;;5029937;28;20026;-71
2022/01/03 03:15:10;;;;;;;5.80;1.70;;;10.80;99.90;;;;;;5033242;28;20402;-71
2022/01/03 03:17:37;;;;;;;5.57;1.48;;;10.80;99.90;;;;;;5037184;28;20028;-71
2022/01/03 03:20:20;;;;;;;4.32;1.38;;;10.80;99.90;;;;;;5033421;28;20030;-70
2022/01/03 03:22:50;;;;;;;11.65;1.27;;;10.80;99.90;;;;;;5032673;28;20029;-71
2022/01/03 03:25:25;;;;;;;7.28;1.45;;;10.70;99.90;;;;;;5032544;28;20362;-70
2022/01/03 03:27:55;;;;;;;4.13;1.15;;;10.70;99.90;;;;;;5027319;28;20030;-70
2022/01/03 03:30:24;;;;;;;6.60;1.30;;;10.70;99.90;;;;;;5023890;28;20033;-70
2022/01/03 03:32:56;;;;;;;7.30;1.60;;;10.70;99.90;;;;;;5033280;28;20033;-70
2022/01/03 03:35:24;;;;;;;4.35;1.00;;;10.60;99.90;;;;;;5029843;28;20040;-70
2022/01/03 03:37:50;;;;;;;7.10;1.17;;;10.60;99.90;;;;;;5029114;28;20026;-71
2022/01/03 03:40:16;;;;;;;2.92;0.80;;;10.60;99.90;;;;;;5028135;28;20025;-71
2022/01/03 03:42:43;;;;;;;3.28;1.10;;;10.50;99.90;;;;;;5023279;28;20032;-70
2022/01/03 03:45:10;;;;;;;5.55;1.67;;;10.50;99.90;;;;;;5028724;28;20080;-70
2022/01/03 03:47:35;;;;;;;11.02;1.50;;;10.50;99.90;;;;;;5035459;28;20104;-71
2022/01/03 03:50:02;;;;;;;6.05;1.42;;;10.40;99.90;;;;;;5014355;28;20092;-70
2022/01/03 03:52:27;;;;;;;8.73;1.55;;;10.50;99.90;;;;;;5035075;28;20029;-71
2022/01/03 03:54:53;;;;;;;4.82;1.63;;;10.40;99.90;;;;;;5028796;28;20030;-71
2022/01/03 03:57:19;;;;;;;4.18;1.15;;;10.40;99.90;;;;;;5026891;28;20026;-70
2022/01/03 03:59:45;;;;;;;6.88;1.20;;;10.40;99.90;;;;;;5025068;28;20035;-70
2022/01/03 04:02:10;;;;;;;5.82;1.20;;;10.40;99.90;;;;;;5027810;28;20029;-71
2022/01/03 04:04:36;;;;;;;8.95;1.52;;;10.30;99.90;;;;;;5032723;28;20028;-71
2022/01/03 04:07:03;;;;;;;7.55;1.40;;;10.30;99.90;;;;;;5017579;28;20065;-71
2022/01/03 04:09:28;;;;;;;4.13;1.20;;;10.30;99.90;;;;;;5033948;28;20029;-71
2022/01/03 04:11:54;;;;;;;5.65;1.30;;;10.30;99.90;;;;;;5029974;28;20033;-71
2022/01/03 04:14:20;;;;;;;7.80;1.30;;;10.30;99.90;;;;;;5033429;28;20028;-71
2022/01/03 04:16:48;;;;;;;8.90;1.50;;;10.30;99.90;;;;;;5030946;28;20025;-71
2022/01/03 04:19:14;;;;;;;6.47;0.95;;;10.20;99.90;;;;;;5027500;28;20022;-72
2022/01/03 04:21:40;;;;;;;5.28;1.52;;;10.20;99.90;;;;;;5012476;28;20021;-71
2022/01/03 04:24:08;;;;;;;7.38;1.38;;;10.20;99.90;;;;;;5034922;28;20148;-71
2022/01/03 04:26:35;;;;;;;8.75;1.50;;;10.20;99.90;;;;;;5032940;28;20021;-71
2022/01/03 04:29:01;;;;;;;3.85;1.52;;;10.10;99.90;;;;;;5027868;28;20025;-71
2022/01/03 04:31:27;;;;;;;7.85;1.25;;;10.20;99.90;;;;;;5033730;28;20025;-71
2022/01/03 04:33:53;;;;;;;8.30;1.80;;;10.10;99.90;;;;;;5025090;28;20138;-71
2022/01/03 04:36:18;;;;;;;7.07;1.33;;;10.10;99.90;;;;;;5032755;28;20104;-71
2022/01/03 04:38:44;;;;;;;7.75;1.60;;;10.00;99.90;;;;;;5035477;28;20049;-71
2022/01/03 04:41:13;;;;;;;6.55;1.38;;;10.00;99.90;;;;;;5031690;28;20031;-71
2022/01/03 04:43:42;;;;;;;5.40;1.30;;;10.00;99.90;;;;;;5018002;28;20084;-71
2022/01/03 04:46:08;;;;;;;5.53;1.25;;;10.00;99.90;;;;;;5014412;28;20033;-71
2022/01/03 04:48:36;;;;;;;6.22;1.27;;;10.00;99.90;;;;;;5026655;28;20029;-71
2022/01/03 04:51:02;;;;;;;7.00;1.20;;;10.00;99.90;;;;;;5030579;28;20017;-71
2022/01/03 04:53:28;;;;;;;3.60;1.08;;;10.00;99.90;;;;;;5032027;28;20763;-71
2022/01/03 04:55:54;;;;;;;6.90;1.17;;;10.00;99.90;;;;;;5029036;28;20099;-71
2022/01/03 04:58:26;;;;;;;8.45;2.08;;;10.00;99.90;;;;;;5027025;28;20490;-71
2022/01/03 05:00:52;;;;;;;8.23;1.83;;;9.90;99.90;;;;;;5031869;28;20025;-71
2022/01/03 05:03:20;;;;;;;3.28;1.08;;;9.90;99.90;;;;;;5021093;28;20029;-70
2022/01/03 05:05:49;;;;;;;5.80;1.27;;;9.90;99.90;;;;;;5023951;28;20025;-71
2022/01/03 05:08:15;;;;;;;8.60;1.23;;;9.90;99.90;;;;;;5029164;28;20032;-71
2022/01/03 05:10:40;;;;;;;4.95;1.60;;;9.90;99.90;;;;;;5030774;28;20034;-71
2022/01/03 05:13:09;;;;;;;7.13;1.55;;;9.80;99.90;;;;;;5011157;28;20030;-72
2022/01/03 05:15:38;;;;;;;8.82;1.52;;;9.90;99.90;;;;;;5044371;28;20026;-71
2022/01/03 05:18:03;;;;;;;7.68;1.45;;;9.80;99.90;;;;;;5030699;28;20076;-71
2022/01/03 05:20:35;;;;;;;7.07;1.23;;;9.80;99.90;;;;;;5028379;28;20033;-70
2022/01/03 05:23:00;;;;;;;7.50;1.25;;;9.80;99.90;;;;;;5026644;28;20045;-71
2022/01/03 05:25:29;;;;;;;7.63;1.27;;;9.80;99.90;;;;;;5030238;28;20083;-71
2022/01/03 05:27:55;;;;;;;3.22;1.00;;;9.80;99.90;;;;;;5035385;28;20045;-71
2022/01/03 05:30:20;;;;;;;5.22;1.05;;;9.80;99.90;;;;;;5030433;28;20379;-71
2022/01/03 05:32:46;;;;;;;4.90;1.48;;;9.80;99.90;;;;;;5018967;28;20120;-71
2022/01/03 05:35:12;;;;;;;3.85;1.52;;;9.70;99.90;;;;;;5031230;28;20064;-71
2022/01/03 05:37:38;;;;;;;3.58;0.93;;;9.70;99.90;;;;;;5034541;28;20347;-71
2022/01/03 05:40:06;;;;;;;3.17;1.10;;;9.80;99.90;;;;;;5036705;28;20513;-71
2022/01/03 05:42:34;;;;;;;7.30;1.35;;;9.80;99.90;;;;;;5032074;28;20478;-70
2022/01/03 05:45:00;;;;;;;5.38;1.08;;;9.80;99.90;;;;;;5032198;28;20025;-70
2022/01/03 05:47:27;;;;;;;6.93;1.50;;;9.70;99.90;;;;;;5031841;28;20097;-71
2022/01/03 05:49:53;;;;;;;5.75;1.75;;;9.70;99.90;;;;;;5032027;28;20075;-70
2022/01/03 05:52:19;;;;;;;7.53;1.58;;;9.70;99.90;;;;;;5025238;28;20021;-71
2022/01/03 05:54:45;;;;;;;8.90;1.80;;;10.00;99.90;;;;;;5019438;28;20040;-69
2022/01/03 05:57:11;;;;;;;3.97;1.20;;;10.10;99.90;;;;;;5010441;28;20025;-71
2022/01/03 05:59:36;;;;;;;5.38;1.38;;;10.30;99.90;;;;;;5027334;28;20040;-71
2022/01/03 06:02:04;;;;;;;5.20;1.20;;;10.20;99.90;;;;;;5029229;28;20037;-71
2022/01/03 06:07:13;;;;;;;8.30;1.17;;;10.00;99.90;;;;;;5018836;28;20107;-71
2022/01/03 06:09:42;;;;;;;3.70;0.88;;;9.90;99.90;;;;;;5032920;28;20440;-71
2022/01/03 06:12:08;;;;;;;5.22;1.55;;;9.90;99.90;;;;;;5043405;28;20090;-71
2022/01/03 06:14:33;;;;;;;8.18;1.70;;;9.80;99.90;;;;;;5030363;28;20389;-70
2022/01/03 06:16:59;;;;;;;8.43;1.52;;;9.70;99.90;;;;;;5031033;28;20037;-71
2022/01/03 06:19:28;;;;;;;5.47;1.25;;;9.60;99.90;;;;;;5031187;28;20116;-70
2022/01/03 06:21:55;;;;;;;9.77;1.60;;;9.60;99.90;;;;;;5008730;28;20486;-71
2022/01/03 06:24:21;;;;;;;6.55;1.20;;;9.50;99.90;;;;;;5029128;28;20036;-70
2022/01/03 06:26:49;;;;;;;5.68;1.45;;;9.50;99.90;;;;;;5034835;28;20037;-70
2022/01/03 06:29:19;;;;;;;4.75;1.50;;;9.50;99.90;;;;;;5040251;28;20405;-70
2022/01/03 06:31:50;;;;;;;5.88;1.25;;;9.50;99.90;;;;;;5030389;28;20021;-70
2022/01/03 06:34:16;;;;;;;4.65;1.10;;;9.50;99.90;;;;;;5030167;28;20029;-70
2022/01/03 06:36:51;;;;;;;5.63;1.20;;;9.50;99.90;;;;;;5036994;28;20024;-71
2022/01/03 06:39:17;;;;;;;3.42;1.25;;;9.50;99.90;;;;;;5034651;28;20033;-71
2022/01/03 06:41:52;;;;;;;6.38;1.52;;;9.50;99.90;;;;;;5020049;28;20076;-71
2022/01/03 06:44:17;;;;;;;8.48;1.52;;;9.50;99.90;;;;;;5013460;28;20452;-71
2022/01/03 06:46:47;;;;;;;7.65;1.45;;;9.50;99.90;;;;;;5033878;28;20033;-72
2022/01/03 06:49:14;;;;;;;4.93;1.33;;;9.40;99.90;;;;;;5040302;28;20380;-71
2022/01/03 06:51:39;;;;;;;5.80;1.52;;;9.40;99.90;;;;;;5034169;28;20078;-70
2022/01/03 06:54:07;;;;;;;8.50;1.50;;;9.40;99.90;;;;;;5049416;28;20017;-71
2022/01/03 06:56:40;;;;;;;8.05;1.38;;;9.40;99.90;;;;;;5017143;28;20112;-71
2022/01/03 06:59:05;;;;;;;5.53;1.20;;;9.40;99.90;;;;;;5035029;28;20028;-72
2022/01/03 07:01:31;;;;;;;5.55;1.80;;;9.40;99.90;;;;;;5034952;28;20029;-71
2022/01/03 07:03:57;;;;;;;5.80;1.25;;;9.40;99.90;;;;;;5034626;28;20378;-72
2022/01/03 07:06:23;;;;;;;8.45;1.10;;;9.40;99.90;;;;;;5020304;28;20029;-71
2022/01/03 07:08:48;;;;;;;3.63;1.45;;;9.40;99.90;;;;;;5014765;28;20018;-71
2022/01/03 07:11:14;;;;;;;6.55;1.95;;;9.40;99.90;;;;;;5011011;28;20592;-70
2022/01/03 07:13:50;;;;;;;7.25;1.45;;;9.40;99.90;;;;;;5028966;28;20026;-70
2022/01/03 07:19:00;;;;;;;5.18;0.90;;;9.40;99.90;;;;;;5022649;28;20036;-73
2022/01/03 07:21:28;;;;;;;4.68;1.30;;;9.40;99.90;;;;;;5014307;28;20498;-71
2022/01/03 07:23:55;;;;;;;7.85;1.48;;;9.30;99.90;;;;;;5035995;28;20072;-72
2022/01/03 07:26:21;;;;;;;5.15;1.38;;;9.30;99.90;;;;;;5029911;28;20041;-74
2022/01/03 07:28:46;;;;;;;6.68;1.20;;;9.30;99.90;;;;;;5014773;28;20029;-74
2022/01/03 07:31:12;;;;;;;7.78;1.10;;;9.30;99.90;;;;;;5037138;28;20090;-74
2022/01/03 07:33:38;;;;;;;6.45;1.65;;;9.30;99.90;;;;;;5036063;28;20033;-74
2022/01/03 07:36:04;;;;;;;5.18;1.10;;;9.30;99.90;;;;;;5031494;28;20186;-74
2022/01/03 07:38:32;;;;;;;5.82;1.10;;;9.30;99.90;;;;;;5015586;28;20034;-74
2022/01/03 07:40:59;;;;;;;11.25;1.50;;;9.30;99.90;;;;;;5017354;28;20405;-74
2022/01/03 07:43:24;;;;;;;4.90;1.10;;;9.30;99.90;;;;;;5031259;28;20030;-74
2022/01/03 07:45:50;;;;;;;5.68;1.45;;;9.30;99.90;;;;;;5016830;28;20398;-74
2022/01/03 07:48:16;;;;;;;7.15;1.17;;;9.30;99.90;;;;;;5023472;28;20029;-74
2022/01/03 07:50:42;;;;;;;3.78;1.00;;;9.30;99.90;;;;;;5032025;28;20023;-74
2022/01/03 07:53:07;;;;;;;5.38;0.98;;;9.30;99.90;;;;;;5032970;28;20104;-74
2022/01/03 07:55:33;;;;;;;7.00;1.25;;;9.30;99.90;;;;;;5012840;28;20026;-74
2022/01/03 07:57:59;;;;;;;11.20;1.95;;;9.40;99.90;;;;;;5017041;28;20109;-74
2022/01/03 08:00:25;;;;;;;6.10;1.20;;;9.30;99.90;;;;;;5019839;28;20071;-74
2022/01/03 08:02:50;;;;;;;6.53;1.92;;;9.40;99.90;;;;;;5030518;28;20036;-74
2022/01/03 08:05:16;;;;;;;4.00;1.10;;;9.40;99.90;;;;;;5021076;28;20104;-74
2022/01/03 08:07:45;;;;;;;5.38;1.17;;;9.50;99.90;;;;;;5026843;28;20033;-74
2022/01/03 08:10:13;;;;;;;9.85;1.23;;;9.50;99.90;;;;;;5032035;28;20017;-74
2022/01/03 08:12:39;;;;;;;7.72;1.27;;;9.50;99.90;;;;;;5032082;28;20021;-74
2022/01/03 08:15:06;;;;;;;4.43;1.30;;;9.60;99.90;;;;;;5032471;28;20092;-75
2022/01/03 08:17:35;;;;;;;5.70;1.00;;;9.60;99.90;;;;;;5015086;28;20124;-74
2022/01/03 08:20:04;;;;;;;7.18;1.33;;;9.60;99.90;;;;;;5023841;28;20481;-74
2022/01/03 08:22:29;;;;;;;6.57;1.42;;;9.70;99.90;;;;;;5032349;28;20033;-74
2022/01/03 08:24:55;;;;;;;6.07;1.20;;;9.70;99.90;;;;;;5032163;28;20493;-74
2022/01/03 08:27:21;;;;;;;5.10;1.55;;;9.80;99.90;;;;;;5028071;28;20030;-74
2022/01/03 08:29:46;;;;;;;6.93;1.52;;;9.80;99.90;;;;;;5036467;28;20029;-74
2022/01/03 08:32:12;;;;;;;5.95;1.20;;;9.80;99.90;;;;;;5031056;28;20037;-74
2022/01/03 08:34:38;;;;;;;7.20;1.30;;;9.80;99.90;;;;;;5036357;28;20021;-74
2022/01/03 08:37:04;;;;;;;5.40;1.20;;;9.80;99.90;;;;;;5019771;28;20032;-74
2022/01/03 08:39:29;;;;;;;4.65;1.17;;;9.90;99.90;;;;;;5039685;28;20393;-74
2022/01/03 08:41:55;;;;;;;8.13;1.38;;;9.90;99.90;;;;;;5017456;28;20071;-74
2022/01/03 08:44:21;;;;;;;8.27;1.55;;;10.00;99.90;;;;;;5036825;28;20098;-74
2022/01/03 08:46:46;;;;;;;4.50;1.80;;;10.00;99.90;;;;;;5030242;28;20559;-74
2022/01/03 08:49:13;;;;;;;9.05;1.90;;;10.00;99.90;;;;;;5034849;28;20028;-75
2022/01/03 08:51:39;;;;;;;5.45;1.10;;;10.10;99.90;;;;;;5012222;28;20045;-74
2022/01/03 08:54:05;;;;;;;6.57;1.13;;;10.20;99.90;;;;;;5011906;28;20505;-74
2022/01/03 08:56:31;;;;;;;8.15;1.50;;;10.20;99.90;;;;;;5037861;28;20029;-74
2022/01/03 08:58:56;;;;;;;6.55;1.60;;;10.20;99.90;;;;;;5031640;28;20504;-74
2022/01/03 09:01:22;;;;;;;6.35;1.55;;;10.30;99.90;;;;;;5032050;28;20124;-74
2022/01/03 09:03:50;;;;;;;6.57;1.35;;;10.30;99.90;;;;;;5033646;28;20037;-74
2022/01/03 09:06:17;;;;;;;5.18;1.40;;;10.40;99.90;;;;;;5036151;28;20021;-74
2022/01/03 09:08:43;;;;;;;5.85;0.98;;;10.40;99.90;;;;;;5033776;28;20547;-74
2022/01/03 09:11:09;;;;;;;4.97;1.40;;;10.50;99.90;;;;;;5026256;28;20025;-74
2022/01/03 09:13:35;;;;;;;6.10;1.52;;;10.50;99.90;;;;;;5035641;28;20047;-74
2022/01/03 09:16:06;;;;;;;10.63;1.60;;;10.60;99.90;;;;;;5034169;28;20451;-74
2022/01/03 09:18:33;;;;;;;3.67;1.13;;;10.60;99.90;;;;;;5019622;28;20033;-74
2022/01/03 09:20:58;;;;;;;3.85;1.30;;;10.70;99.90;;;;;;5030528;28;20104;-75
2022/01/03 09:23:29;;;;;;;9.50;1.27;;;10.70;99.90;;;;;;5033943;28;20716;-74
2022/01/03 09:28:49;;;;;;;6.90;1.52;;;10.80;99.90;;;;;;5016260;28;20032;-74
2022/01/03 09:31:25;;;;;;;8.43;1.30;;;10.80;99.90;;;;;;5010103;28;20045;-74
2022/01/03 09:33:53;;;;;;;8.27;0.90;;;10.90;99.90;;;;;;5012587;28;20021;-74
2022/01/03 09:36:20;;;;;;;5.35;1.52;;;10.90;99.90;;;;;;5017236;28;20602;-74
2022/01/03 09:38:45;;;;;;;12.23;1.70;;;10.90;99.90;;;;;;5015832;28;20098;-74
2022/01/03 09:41:13;;;;;;;3.47;0.90;;;11.00;99.90;;;;;;5023777;28;20502;-74
2022/01/03 09:43:47;;;;;;;7.07;1.08;;;11.00;99.90;;;;;;5019878;28;20037;-74
2022/01/03 09:46:21;;;;;;;8.13;1.85;;;11.00;99.90;;;;;;5032925;28;20025;-74
2022/01/03 09:48:52;;;;;;;5.28;1.23;;;11.00;99.90;;;;;;5024720;28;20026;-74
2022/01/03 09:51:30;;;;;;;5.38;1.50;;;11.10;99.90;;;;;;5019627;28;20041;-74
2022/01/03 09:54:19;;;;;;;5.50;1.38;;;11.10;99.90;;;;;;5022245;28;20056;-74
2022/01/03 09:56:45;;;;;;;3.45;1.00;;;11.10;99.90;;;;;;5024465;28;20052;-74
2022/01/03 09:59:12;;;;;;;5.07;1.58;;;11.10;99.90;;;;;;5029594;28;20044;-74
2022/01/03 10:01:38;;;;;;;5.72;1.17;;;11.20;99.90;;;;;;5025093;28;20092;-74
2022/01/03 10:04:04;;;;;;;8.43;1.33;;;11.10;99.90;;;;;;5013034;28;20030;-74
2022/01/03 10:06:31;;;;;;;7.63;1.05;;;11.20;99.90;;;;;;5028408;28;20496;-75
2022/01/03 10:08:57;;;;;;;5.03;0.98;;;11.20;99.90;;;;;;5026445;28;20014;-75
2022/01/03 10:11:24;;;;;;;6.88;1.63;;;11.20;99.90;;;;;;5031363;28;20501;-75
2022/01/03 10:13:51;;;;;;;5.63;1.33;;;11.20;99.90;;;;;;5031057;28;20102;-75
2022/01/03 10:16:17;;;;;;;2.83;1.35;;;11.20;99.90;;;;;;5036282;28;20368;-75
2022/01/03 10:18:46;;;;;;;6.88;1.30;;;11.20;99.90;;;;;;5031697;28;20067;-74
2022/01/03 10:21:12;;;;;;;4.85;1.17;;;11.30;99.90;;;;;;5037966;28;20484;-73
2022/01/03 10:23:57;;;;;;;6.95;1.10;;;11.30;99.90;;;;;;5016744;28;20033;-74
2022/01/03 10:26:23;;;;;;;6.43;1.52;;;11.30;99.90;;;;;;5030756;28;20578;-74
2022/01/03 10:28:51;;;;;;;7.03;1.30;;;11.30;99.90;;;;;;5033971;28;20033;-74
2022/01/03 10:31:20;;;;;;;4.00;1.35;;;11.30;99.90;;;;;;5041080;28;20028;-74
2022/01/03 10:33:47;;;;;;;14.68;1.60;;;11.30;99.90;;;;;;5036975;28;20100;-73
2022/01/03 10:36:27;;;;;;;3.75;0.82;;;11.30;99.90;;;;;;5015980;28;20025;-73
2022/01/03 10:38:53;;;;;;;6.65;1.27;;;11.40;99.90;;;;;;5027300;28;20041;-73
2022/01/03 10:41:21;;;;;;;6.85;1.52;;;11.40;99.90;;;;;;5032865;28;20029;-73
2022/01/03 10:43:51;;;;;;;5.63;1.30;;;11.40;99.90;;;;;;5032402;28;20074;-73
2022/01/03 10:46:29;;;;;;;5.47;1.23;;;11.40;99.90;;;;;;5017791;28;20064;-72
2022/01/03 10:49:13;;;;;;;9.85;1.90;;;11.40;99.90;;;;;;5037716;28;20473;-74
2022/01/03 10:51:40;;;;;;;9.27;1.52;;;11.40;99.90;;;;;;5021976;28;20423;-73
2022/01/03 10:54:11;;;;;;;9.48;1.35;;;11.40;99.90;;;;;;5037546;28;20037;-73
2022/01/03 10:56:54;;;;;;;6.50;1.38;;;11.40;99.90;;;;;;5033997;28;20026;-73
2022/01/03 10:59:30;;;;;;;6.13;1.10;;;11.40;99.90;;;;;;5017390;28;20653;-73
2022/01/03 11:02:01;;;;;;;8.30;1.60;;;11.40;99.90;;;;;;5040142;28;20025;-73
2022/01/03 11:04:58;;;;;;;9.80;2.47;;;11.50;99.90;;;;;;5033228;28;20037;-73
2022/01/03 11:13:16;;;;;;;3.85;1.30;;;11.50;99.90;;;;;;5033455;28;20040;-73
2022/01/03 11:16:00;;;;;;;5.82;1.13;;;11.60;99.90;;;;;;5043601;28;20028;-74
2022/01/03 11:18:31;;;;;;;5.88;1.27;;;11.60;99.90;;;;;;5020849;28;20030;-74
2022/01/03 11:21:11;;;;;;;10.05;2.00;;;11.70;99.90;;;;;;5014053;28;20548;-74
2022/01/03 11:23:38;;;;;;;9.02;1.55;;;11.70;99.90;;;;;;5032685;28;20013;-73
2022/01/03 11:26:10;;;;;;;5.13;1.77;;;11.70;99.90;;;;;;5019173;28;20060;-73
2022/01/03 11:28:36;;;;;;;6.00;1.30;;;11.80;99.90;;;;;;5013457;28;20029;-73
2022/01/03 11:31:03;;;;;;;5.20;1.02;;;11.80;99.90;;;;;;5021551;28;20072;-73
2022/01/03 11:33:30;;;;;;;4.72;1.00;;;11.80;99.90;;;;;;5023235;28;20029;-73
2022/01/03 11:35:57;;;;;;;3.03;0.80;;;11.90;99.90;;;;;;5040552;28;20032;-73
2022/01/03 11:38:26;;;;;;;8.23;1.63;;;11.90;99.90;;;;;;5038254;28;20120;-73
2022/01/03 11:40:53;;;;;;;5.78;1.20;;;11.90;99.90;;;;;;5035338;28;20090;-74
2022/01/03 11:43:19;;;;;;;6.63;1.45;;;11.90;99.90;;;;;;5032565;28;20505;-74
2022/01/03 11:45:44;;;;;;;4.78;1.05;;;12.00;99.90;;;;;;5035211;28;20041;-74
2022/01/03 11:48:11;;;;;;;6.43;1.42;;;12.00;99.90;;;;;;5020179;28;20033;-73
2022/01/03 11:50:39;;;;;;;9.65;1.15;;;12.00;99.90;;;;;;5032544;28;20043;-74
2022/01/03 11:53:07;;;;;;;7.60;1.75;;;12.00;99.90;;;;;;5017887;28;20573;-76
2022/01/03 11:55:36;;;;;;;5.10;1.00;;;12.00;99.90;;;;;;5030258;28;20017;-73
2022/01/03 12:06:03;;;;;;;4.95;1.08;;;12.10;99.90;;;;;;5031450;28;20033;-73
2022/01/03 12:08:33;;;;;;;5.32;1.73;;;12.10;99.90;;;;;;5041552;28;20035;-72
2022/01/03 12:11:00;;;;;;;7.18;1.13;;;12.10;99.90;;;;;;5026503;28;20049;-72
2022/01/03 12:13:57;;;;;;;5.50;1.10;;;12.10;99.90;;;;;;5034712;28;20043;-73
2022/01/03 12:16:53;;;;;;;7.28;1.33;;;12.20;99.90;;;;;;5050032;28;20029;-74
2022/01/03 12:19:37;;;;;;;3.80;1.25;;;12.20;99.90;;;;;;5032423;28;20021;-73
2022/01/03 12:22:07;;;;;;;7.85;1.52;;;12.20;99.90;;;;;;5032835;28;20064;-72
2022/01/03 12:24:33;;;;;;;6.00;1.10;;;12.10;99.40;;;;;;5023780;28;20026;-72
2022/01/03 12:27:10;;;;;;;8.05;1.83;;;12.20;99.70;;;;;;5015060;28;20029;-72
2022/01/03 12:30:05;;;;;;;7.25;1.60;;;12.20;99.70;;;;;;5030279;28;20030;-72
2022/01/03 12:32:32;;;;;;;3.80;1.70;;;12.20;99.50;;;;;;5032280;28;20100;-74
2022/01/03 12:35:17;;;;;;;3.83;1.55;;;12.20;99.60;;;;;;5031812;28;20028;-74
2022/01/03 12:37:52;;;;;;;8.55;1.80;;;12.20;98.70;;;;;;5016327;28;20390;-74
2022/01/03 12:40:21;;;;;;;7.68;1.92;;;12.20;99.10;;;;;;5022605;28;20037;-73
2022/01/03 12:42:51;;;;;;;2.70;1.27;;;12.20;99.30;;;;;;5035066;28;20492;-72
2022/01/03 12:45:28;;;;;;;9.32;1.58;;;12.20;98.60;;;;;;5029901;28;20024;-72
2022/01/03 12:48:15;;;;;;;7.90;1.70;;;12.20;98.60;;;;;;5031429;28;20429;-72
2022/01/03 12:50:42;;;;;;;5.88;1.45;;;12.20;99.00;;;;;;5012723;28;20041;-72
2022/01/03 12:53:11;;;;;;;4.50;1.40;;;12.20;98.80;;;;;;5021313;28;20029;-73
2022/01/03 12:55:41;;;;;;;3.78;1.35;;;12.20;98.90;;;;;;5028982;28;20082;-73
2022/01/03 12:58:12;;;;;;;5.55;1.58;;;12.20;99.00;;;;;;5028477;28;20018;-73
2022/01/03 13:00:44;;;;;;;5.07;1.10;;;12.20;98.90;;;;;;5035603;28;20036;-73
2022/01/03 13:03:29;;;;;;;6.38;1.27;;;12.20;98.80;;;;;;5032044;28;20112;-73
2022/01/03 13:06:13;;;;;;;8.15;1.15;;;12.20;98.50;;;;;;5008633;28;20045;-73
2022/01/03 13:08:59;;;;;;;4.40;1.20;;;12.30;98.50;;;;;;5021349;28;20096;-73
2022/01/03 13:11:49;;;;;;;2.28;0.60;;;12.30;98.10;;;;;;5012231;28;20049;-72
2022/01/03 13:14:19;;;;;;;4.00;1.55;;;12.30;97.80;;;;;;5037292;28;20568;-73
2022/01/03 13:16:46;;;;;;;4.57;1.50;;;12.30;98.20;;;;;;5026932;28;20029;-73
2022/01/03 13:19:20;;;;;;;5.93;1.20;;;12.30;97.90;;;;;;5032756;28;20033;-73
2022/01/03 13:21:55;;;;;;;3.47;1.20;;;12.30;98.00;;;;;;5036567;28;20507;-74
2022/01/03 13:24:43;;;;;;;5.47;1.10;;;12.40;98.10;;;;;;5030016;28;20038;-73
2022/01/03 13:27:16;;;;;;;3.60;1.10;;;12.40;97.90;;;;;;5043576;23;20038;-74